Aviation Digital Data Service (ADDS)

Output produced by METARs form (1846 UTC 04 September 2015)
found at http://aviationweather.gov/adds/metars/
 
KVQQ 041810Z 0418/0518 33004KT P6SM VCTS SCT040CB BKN180 
     FM041930 05007KT P6SM VCTS BKN040CB BKN180 
     TEMPO 0420/0423 4SM TSRA BKN035CB 
     FM050200 00000KT P6SM SCT040 BKN250 
     FM051300 06008KT P6SM VCSH SCT020 BKN040